Time;durP1;ratioP1;P1;durP2;ratioP2;P2;SDS_P1;SDS_P2;PMS_P1;PMS_P2;Temp;Humidity;BMP_temperature;BMP_pressure;BME280_temperature;BME280_humidity;BME280_pressure;Samples;Min_cycle;Max_cycle;Signal;HPM_P1;HPM_P2
2023/12/04 00:01:32;;;;;;;;;;;-1.50;66.00;;;;;;4588213;30;115320;-80
2023/12/04 00:03:59;;;;;;;;;;;-1.50;66.10;;;;;;4603390;30;116640;-81
2023/12/04 00:06:26;;;;;;;;;;;-1.50;66.10;;;;;;4589380;30;114463;-81
2023/12/04 00:08:53;;;;;;;;;;;-1.50;65.80;;;;;;4604296;30;114449;-80
2023/12/04 00:11:20;;;;;;;;;;;-1.60;65.70;;;;;;4603554;30;114982;-82
2023/12/04 00:13:47;;;;;;;;;;;-1.70;66.00;;;;;;4603962;30;114229;-80
2023/12/04 00:16:14;;;;;;;;;;;-1.60;66.20;;;;;;4589187;30;114364;-80
2023/12/04 00:18:41;;;;;;;;;;;-1.60;66.00;;;;;;4603869;30;114370;-81
2023/12/04 00:21:08;;;;;;;;;;;-1.60;66.00;;;;;;4587969;30;114878;-79
2023/12/04 00:23:35;;;;;;;;;;;-1.60;66.00;;;;;;4588083;30;115794;-80
2023/12/04 00:26:04;;;;;;;;;;;-1.60;66.10;;;;;;4589118;30;114353;-81
2023/12/04 00:28:31;;;;;;;;;;;-1.60;66.20;;;;;;4603990;30;114469;-79
2023/12/04 00:30:58;;;;;;;;;;;-1.50;66.30;;;;;;4603525;30;115047;-80
2023/12/04 00:33:25;;;;;;;;;;;-1.50;66.30;;;;;;4587852;30;117107;-80
2023/12/04 00:35:52;;;;;;;;;;;-1.50;66.10;;;;;;4603933;30;114475;-80
2023/12/04 00:38:19;;;;;;;;;;;-1.50;65.70;;;;;;4589147;30;114440;-81
2023/12/04 00:40:47;;;;;;;;;;;-1.60;65.50;;;;;;4603112;30;114960;-81
2023/12/04 00:43:14;;;;;;;;;;;-1.70;65.70;;;;;;4590369;30;114696;-79
2023/12/04 00:45:41;;;;;;;;;;;-1.70;66.00;;;;;;4575691;30;114147;-79
2023/12/04 00:48:08;;;;;;;;;;;-1.80;66.10;;;;;;4570048;30;114902;-81
2023/12/04 00:50:35;;;;;;;;;;;-1.70;66.10;;;;;;4569318;30;116360;-80
2023/12/04 00:53:02;;;;;;;;;;;-1.60;66.10;;;;;;4569356;30;114625;-80
2023/12/04 00:55:29;;;;;;;;;;;-1.50;66.10;;;;;;4570338;30;114398;-80
2023/12/04 00:57:57;;;;;;;;;;;-1.50;66.20;;;;;;4570450;30;114573;-79
2023/12/04 01:00:24;;;;;;;;;;;-1.40;66.30;;;;;;4570128;30;114960;-81
2023/12/04 01:02:51;;;;;;;;;;;-1.40;66.40;;;;;;4571384;30;114561;-83
2023/12/04 01:05:18;;;;;;;;;;;-1.40;66.40;;;;;;4569736;30;114502;-81
2023/12/04 01:07:45;;;;;;;;;;;-1.40;66.20;;;;;;4570302;30;114095;-81
2023/12/04 01:10:12;;;;;;;;;;;-1.30;66.20;;;;;;4568810;30;115151;-80
2023/12/04 01:12:39;;;;;;;;;;;-1.30;66.20;;;;;;4568066;30;115042;-81
2023/12/04 01:15:07;;;;;;;;;;;-1.30;66.20;;;;;;4570290;30;114401;-81
2023/12/04 01:17:34;;;;;;;;;;;-1.30;66.20;;;;;;4570111;30;114534;-81
2023/12/04 01:20:01;;;;;;;;;;;-1.30;66.20;;;;;;4569165;30;114883;-81
2023/12/04 01:22:28;;;;;;;;;;;-1.30;66.30;;;;;;4569015;30;116267;-80
2023/12/04 01:24:56;;;;;;;;;;;-1.30;66.30;;;;;;4582680;30;114640;-80
2023/12/04 01:27:23;;;;;;;;;;;-1.30;66.40;;;;;;4569198;30;114291;-80
2023/12/04 01:29:50;;;;;;;;;;;-1.20;66.40;;;;;;4568911;30;115581;-80
2023/12/04 01:32:17;;;;;;;;;;;-1.20;66.40;;;;;;4568774;30;114586;-80
2023/12/04 01:34:44;;;;;;;;;;;-1.20;66.30;;;;;;4569426;30;114751;-81
2023/12/04 01:37:11;;;;;;;;;;;-1.20;66.40;;;;;;4568606;30;114582;-80
2023/12/04 01:39:38;;;;;;;;;;;-1.20;66.30;;;;;;4568937;30;114891;-79
2023/12/04 01:42:05;;;;;;;;;;;-1.20;66.30;;;;;;4586712;30;114672;-80
2023/12/04 01:44:32;;;;;;;;;;;-1.10;66.30;;;;;;4603045;30;114339;-79
2023/12/04 01:46:59;;;;;;;;;;;-1.20;66.30;;;;;;4587729;30;114448;-79
2023/12/04 01:49:27;;;;;;;;;;;-1.20;66.40;;;;;;4601907;30;116066;-80
2023/12/04 01:51:54;;;;;;;;;;;-1.10;66.40;;;;;;4587401;30;116403;-80
2023/12/04 01:54:21;;;;;;;;;;;-1.20;66.40;;;;;;4603044;30;114069;-80
2023/12/04 01:56:48;;;;;;;;;;;-1.10;66.50;;;;;;4602932;30;114496;-81
2023/12/04 01:59:15;;;;;;;;;;;-1.10;66.50;;;;;;4586754;30;114896;-81
2023/12/04 02:01:42;;;;;;;;;;;-1.20;66.50;;;;;;4602157;30;114893;-79
2023/12/04 02:04:09;;;;;;;;;;;-1.10;66.50;;;;;;4587920;30;114329;-80
2023/12/04 02:06:37;;;;;;;;;;;-1.10;66.50;;;;;;4602853;30;114468;-81
2023/12/04 02:09:06;;;;;;;;;;;-1.10;66.40;;;;;;4601981;30;116287;-81
2023/12/04 02:11:33;;;;;;;;;;;-1.10;66.40;;;;;;4587486;30;114596;-81
2023/12/04 02:14:00;;;;;;;;;;;-1.10;66.40;;;;;;4603085;30;114183;-80
2023/12/04 02:16:27;;;;;;;;;;;-1.10;66.40;;;;;;4587936;30;114360;-81
2023/12/04 02:18:54;;;;;;;;;;;-1.10;66.40;;;;;;4586922;30;115009;-81
2023/12/04 02:21:21;;;;;;;;;;;-1.10;66.40;;;;;;4587074;30;114864;-81
2023/12/04 02:23:50;;;;;;;;;;;-1.10;66.50;;;;;;4602380;30;114115;-80
2023/12/04 02:26:18;;;;;;;;;;;-1.10;66.50;;;;;;4602273;30;114393;-81
2023/12/04 02:28:46;;;;;;;;;;;-1.10;66.40;;;;;;4587849;30;114887;-80
2023/12/04 02:31:13;;;;;;;;;;;-1.10;66.40;;;;;;4610462;30;116398;-81
2023/12/04 02:33:40;;;;;;;;;;;-1.20;66.40;;;;;;4575942;30;114263;-81
2023/12/04 02:36:07;;;;;;;;;;;-1.10;66.40;;;;;;4587776;30;114350;-81
2023/12/04 02:38:34;;;;;;;;;;;-1.20;66.50;;;;;;4587404;30;114996;-80
2023/12/04 02:41:01;;;;;;;;;;;-1.20;66.50;;;;;;4606452;30;114375;-79
2023/12/04 02:43:28;;;;;;;;;;;-1.20;66.60;;;;;;4588012;30;114531;-79
2023/12/04 02:45:56;;;;;;;;;;;-1.20;66.70;;;;;;4602442;30;114480;-79
2023/12/04 02:48:23;;;;;;;;;;;-1.30;66.60;;;;;;4586162;30;116152;-78
2023/12/04 02:50:50;;;;;;;;;;;-1.30;66.80;;;;;;4602169;30;114843;-83
2023/12/04 02:53:17;;;;;;;;;;;-1.30;66.70;;;;;;4602667;30;114233;-80
2023/12/04 02:55:44;;;;;;;;;;;-1.30;66.50;;;;;;4602661;30;114827;-80
2023/12/04 02:58:11;;;;;;;;;;;-1.40;66.70;;;;;;4601526;30;116165;-79
2023/12/04 03:00:41;;;;;;;;;;;-1.40;66.70;;;;;;4601642;30;114722;-80
2023/12/04 03:03:08;;;;;;;;;;;-1.40;66.70;;;;;;4602187;30;114210;-80
2023/12/04 03:05:35;;;;;;;;;;;-1.40;66.70;;;;;;4587540;30;114258;-78
2023/12/04 03:08:02;;;;;;;;;;;-1.40;66.80;;;;;;4600516;30;114915;-79
2023/12/04 03:10:29;;;;;;;;;;;-1.30;66.90;;;;;;4601280;30;114438;-81
2023/12/04 03:12:56;;;;;;;;;;;-1.30;66.80;;;;;;4601525;30;114226;-81
2023/12/04 03:15:24;;;;;;;;;;;-1.40;66.50;;;;;;4602428;30;114176;-81
2023/12/04 03:17:51;;;;;;;;;;;-1.50;66.70;;;;;;4586171;30;117165;-80
2023/12/04 03:20:19;;;;;;;;;;;-1.50;66.90;;;;;;4601389;30;114794;-79
2023/12/04 03:22:45;;;;;;;;;;;-1.50;66.90;;;;;;4587209;30;114469;-79
2023/12/04 03:25:13;;;;;;;;;;;-1.50;66.80;;;;;;4601771;30;114509;-80
2023/12/04 03:27:40;;;;;;;;;;;-1.50;66.80;;;;;;4601053;30;115516;-79
2023/12/04 03:30:07;;;;;;;;;;;-1.40;66.80;;;;;;4586048;30;115722;-80
2023/12/04 03:32:34;;;;;;;;;;;-1.40;66.90;;;;;;4602078;30;114796;-81
2023/12/04 03:35:02;;;;;;;;;;;-1.40;67.00;;;;;;4602162;30;114449;-79
2023/12/04 03:37:29;;;;;;;;;;;-1.40;67.00;;;;;;4599722;30;114881;-79
2023/12/04 03:39:57;;;;;;;;;;;-1.40;66.90;;;;;;4601065;30;114628;-80
2023/12/04 03:42:24;;;;;;;;;;;-1.40;66.80;;;;;;4600687;30;114852;-79
2023/12/04 03:44:51;;;;;;;;;;;-1.40;66.90;;;;;;4602081;30;114283;-81
2023/12/04 03:47:18;;;;;;;;;;;-1.40;67.00;;;;;;4600572;30;116592;-80
2023/12/04 03:49:45;;;;;;;;;;;-1.40;67.00;;;;;;4601031;30;114636;-80
2023/12/04 03:52:12;;;;;;;;;;;-1.40;67.10;;;;;;4601821;30;114454;-80
2023/12/04 03:54:39;;;;;;;;;;;-1.30;67.00;;;;;;4602279;30;114525;-81
2023/12/04 03:57:06;;;;;;;;;;;-1.30;66.90;;;;;;4601096;30;115421;-80
2023/12/04 03:59:33;;;;;;;;;;;-1.30;67.00;;;;;;4600769;30;114534;-79
2023/12/04 04:02:00;;;;;;;;;;;-1.30;67.00;;;;;;4586313;30;114572;-79
2023/12/04 04:04:27;;;;;;;;;;;-1.30;67.00;;;;;;4600727;30;114241;-80
2023/12/04 04:06:54;;;;;;;;;;;-1.30;66.90;;;;;;4600669;30;115046;-82
2023/12/04 04:09:22;;;;;;;;;;;-1.30;67.00;;;;;;4601087;30;114640;-79
2023/12/04 04:11:52;;;;;;;;;;;-1.30;67.00;;;;;;4586227;30;114550;-79
2023/12/04 04:14:19;;;;;;;;;;;-1.30;67.00;;;;;;4601040;30;114315;-80
2023/12/04 04:16:48;;;;;;;;;;;-1.30;67.00;;;;;;4608886;30;115013;-80
2023/12/04 04:19:16;;;;;;;;;;;-1.30;66.90;;;;;;4605839;30;114664;-79
2023/12/04 04:21:44;;;;;;;;;;;-1.30;66.90;;;;;;4605359;30;114297;-81
2023/12/04 04:24:11;;;;;;;;;;;-1.30;66.90;;;;;;4589412;30;114502;-81
2023/12/04 04:26:38;;;;;;;;;;;-1.20;67.00;;;;;;4587966;30;114984;-80
2023/12/04 04:29:05;;;;;;;;;;;-1.20;67.00;;;;;;4603723;30;114607;-79
2023/12/04 04:31:32;;;;;;;;;;;-1.30;67.00;;;;;;4604443;30;114432;-80
2023/12/04 04:33:59;;;;;;;;;;;-1.30;67.00;;;;;;4604246;30;114464;-80
2023/12/04 04:36:26;;;;;;;;;;;-1.20;67.00;;;;;;4603178;30;117629;-79
2023/12/04 04:38:54;;;;;;;;;;;-1.20;66.90;;;;;;4603414;30;115787;-80
2023/12/04 04:41:20;;;;;;;;;;;-1.30;66.80;;;;;;4603907;30;114580;-80
2023/12/04 04:43:47;;;;;;;;;;;-1.30;66.80;;;;;;4604652;30;114402;-80
2023/12/04 04:46:15;;;;;;;;;;;-1.30;67.00;;;;;;4603336;30;115186;-79
2023/12/04 04:48:42;;;;;;;;;;;-1.30;67.10;;;;;;4603395;30;115189;-79
2023/12/04 04:51:09;;;;;;;;;;;-1.30;67.10;;;;;;4603532;30;114361;-80
2023/12/04 04:53:36;;;;;;;;;;;-1.30;67.00;;;;;;4602157;30;114531;-80
2023/12/04 04:56:04;;;;;;;;;;;-1.30;67.10;;;;;;4603125;30;116142;-79
2023/12/04 04:58:31;;;;;;;;;;;-1.30;67.00;;;;;;4587808;30;116037;-79
2023/12/04 05:00:58;;;;;;;;;;;-1.30;67.00;;;;;;4603417;30;114385;-80
2023/12/04 05:03:25;;;;;;;;;;;-1.30;67.00;;;;;;4603840;30;114582;-78
2023/12/04 05:05:52;;;;;;;;;;;-1.30;67.00;;;;;;4587327;30;117845;-79
2023/12/04 05:08:19;;;;;;;;;;;-1.30;66.90;;;;;;4588296;30;115000;-81
2023/12/04 05:10:46;;;;;;;;;;;-1.30;66.80;;;;;;4603216;30;114339;-79
2023/12/04 05:13:13;;;;;;;;;;;-1.30;66.90;;;;;;4588535;30;114769;-79
2023/12/04 05:15:40;;;;;;;;;;;-1.40;66.90;;;;;;4587442;30;114896;-81
2023/12/04 05:18:07;;;;;;;;;;;-1.40;66.90;;;;;;4602800;30;114612;-80
2023/12/04 05:20:35;;;;;;;;;;;-1.40;66.80;;;;;;4603567;30;114210;-79
2023/12/04 05:23:02;;;;;;;;;;;-1.40;66.80;;;;;;4603577;30;114087;-78
2023/12/04 05:25:29;;;;;;;;;;;-1.50;66.90;;;;;;4602748;30;114984;-79
2023/12/04 05:28:04;;;;;;;;;;;-1.50;67.00;;;;;;4602771;30;115202;-80
2023/12/04 05:30:31;;;;;;;;;;;-1.60;67.00;;;;;;4602572;30;114444;-80
2023/12/04 05:32:58;;;;;;;;;;;-1.60;67.00;;;;;;4603874;30;114392;-80
2023/12/04 05:35:25;;;;;;;;;;;-1.60;67.10;;;;;;4552768;30;114932;-82
2023/12/04 05:37:52;;;;;;;;;;;-1.60;67.30;;;;;;4600567;30;114579;-81
2023/12/04 05:40:19;;;;;;;;;;;-1.60;67.30;;;;;;4600997;30;114469;-80
2023/12/04 05:42:46;;;;;;;;;;;-1.60;67.20;;;;;;4586241;30;114455;-79
2023/12/04 05:45:13;;;;;;;;;;;-1.60;67.10;;;;;;4581684;30;115494;-80
2023/12/04 05:47:40;;;;;;;;;;;-1.60;67.00;;;;;;4603499;30;114704;-80
2023/12/04 05:50:07;;;;;;;;;;;-1.60;66.90;;;;;;4607727;30;114450;-79
2023/12/04 05:52:35;;;;;;;;;;;-1.60;66.90;;;;;;4610898;30;114670;-79
2023/12/04 05:55:02;;;;;;;;;;;-1.70;66.80;;;;;;4611390;30;115357;-79
2023/12/04 05:57:29;;;;;;;;;;;-1.80;66.70;;;;;;4595067;30;114585;-79
2023/12/04 05:59:56;;;;;;;;;;;-1.80;66.80;;;;;;4607446;30;114474;-80
2023/12/04 06:02:23;;;;;;;;;;;-1.80;66.90;;;;;;4609523;30;114222;-80
2023/12/04 06:04:50;;;;;;;;;;;-1.90;66.90;;;;;;4609582;30;114941;-81
2023/12/04 06:07:17;;;;;;;;;;;-1.90;67.20;;;;;;4615760;30;114494;-81
2023/12/04 06:09:44;;;;;;;;;;;-1.90;67.20;;;;;;4584012;30;114665;-79
2023/12/04 06:12:11;;;;;;;;;;;-1.90;67.20;;;;;;4597107;30;114816;-80
2023/12/04 06:14:38;;;;;;;;;;;-1.90;67.30;;;;;;4608883;30;115192;-79
2023/12/04 06:17:06;;;;;;;;;;;-1.90;67.30;;;;;;4589417;30;114985;-80
2023/12/04 06:19:33;;;;;;;;;;;-1.90;67.30;;;;;;4600810;30;114499;-80
2023/12/04 06:22:01;;;;;;;;;;;-1.90;67.30;;;;;;4603064;30;114684;-81
2023/12/04 06:24:28;;;;;;;;;;;-1.90;67.30;;;;;;4587110;30;114969;-78
2023/12/04 06:26:55;;;;;;;;;;;-1.90;67.40;;;;;;4602080;30;114633;-79
2023/12/04 06:29:24;;;;;;;;;;;-2.00;67.50;;;;;;4587610;30;114369;-79
2023/12/04 06:31:51;;;;;;;;;;;-1.90;67.50;;;;;;4602809;30;114108;-80
2023/12/04 06:34:18;;;;;;;;;;;-1.90;67.40;;;;;;4586946;30;115580;-81
2023/12/04 06:36:46;;;;;;;;;;;-1.90;67.40;;;;;;4601814;30;114734;-79
2023/12/04 06:39:13;;;;;;;;;;;-1.90;67.40;;;;;;4602886;30;114401;-79
2023/12/04 06:41:40;;;;;;;;;;;-1.90;67.30;;;;;;4578242;30;117518;-80
2023/12/04 06:44:07;;;;;;;;;;;-1.90;67.30;;;;;;4592130;30;115584;-82
2023/12/04 06:46:36;;;;;;;;;;;-1.90;67.20;;;;;;4600505;30;114584;-81
2023/12/04 06:49:04;;;;;;;;;;;-1.90;67.20;;;;;;4601155;30;114572;-79
2023/12/04 06:51:31;;;;;;;;;;;-1.90;67.30;;;;;;4599261;30;114439;-80
2023/12/04 06:53:58;;;;;;;;;;;-1.90;67.40;;;;;;4599602;30;116120;-81
2023/12/04 06:56:25;;;;;;;;;;;-1.90;67.10;;;;;;4600166;30;115917;-80
2023/12/04 06:58:52;;;;;;;;;;;-2.00;67.30;;;;;;4601192;30;114302;-80
2023/12/04 07:01:20;;;;;;;;;;;-1.90;67.50;;;;;;4593236;30;114683;-80
2023/12/04 07:03:50;;;;;;;;;;;-1.90;67.50;;;;;;4600098;30;114612;-82
2023/12/04 07:06:17;;;;;;;;;;;-1.80;67.40;;;;;;4600117;30;115082;-81
2023/12/04 07:08:44;;;;;;;;;;;-1.60;67.20;;;;;;4600965;30;114532;-80
2023/12/04 07:11:14;;;;;;;;;;;-1.60;66.90;;;;;;4599147;30;114496;-80
2023/12/04 07:13:41;;;;;;;;;;;-1.60;66.30;;;;;;4600044;30;114960;-81
2023/12/04 07:16:09;;;;;;;;;;;-1.50;66.40;;;;;;4600058;30;114641;-80
2023/12/04 07:18:36;;;;;;;;;;;-1.50;66.40;;;;;;4600373;30;114506;-80
2023/12/04 07:21:03;;;;;;;;;;;-1.40;66.40;;;;;;4600611;30;114533;-80
2023/12/04 07:23:34;;;;;;;;;;;-1.40;66.40;;;;;;4599980;30;115424;-80
2023/12/04 07:26:01;;;;;;;;;;;-1.30;66.40;;;;;;4591721;30;115822;-81
2023/12/04 07:28:28;;;;;;;;;;;-1.20;66.30;;;;;;4592523;30;114526;-81
2023/12/04 07:30:55;;;;;;;;;;;-1.20;66.20;;;;;;4600979;30;114227;-81
2023/12/04 07:33:23;;;;;;;;;;;-1.10;66.00;;;;;;4599921;30;115032;-80
2023/12/04 07:35:53;;;;;;;;;;;-1.10;65.30;;;;;;4591718;30;114756;-80
2023/12/04 07:38:20;;;;;;;;;;;-1.20;65.00;;;;;;4601216;30;114550;-79
2023/12/04 07:40:47;;;;;;;;;;;-1.30;64.90;;;;;;4600740;30;114285;-82
2023/12/04 07:43:14;;;;;;;;;;;-1.40;64.70;;;;;;4591294;30;116026;-83
2023/12/04 07:45:41;;;;;;;;;;;-1.40;64.30;;;;;;4591853;30;118272;-81
2023/12/04 07:48:09;;;;;;;;;;;-1.50;64.70;;;;;;4592141;30;114600;-80
2023/12/04 07:50:37;;;;;;;;;;;-1.50;65.00;;;;;;4600970;30;114534;-81
2023/12/04 07:53:09;;;;;;;;;;;-1.40;65.10;;;;;;4592893;30;115016;-82
2023/12/04 07:55:36;;;;;;;;;;;-1.30;64.30;;;;;;4620646;30;114811;-80
2023/12/04 07:58:04;;;;;;;;;;;-1.30;64.40;;;;;;4599327;30;114949;-80
2023/12/04 08:00:31;;;;;;;;;;;-1.30;63.60;;;;;;4593678;30;114726;-82
2023/12/04 08:03:02;;;;;;;;;;;-1.40;64.20;;;;;;4602766;30;115012;-80
2023/12/04 08:05:31;;;;;;;;;;;-1.30;64.00;;;;;;4601517;30;116097;-81
2023/12/04 08:08:01;;;;;;;;;;;-1.40;63.50;;;;;;4594337;30;114818;-80
2023/12/04 08:10:28;;;;;;;;;;;-1.40;63.80;;;;;;4602484;30;114449;-79
2023/12/04 08:12:55;;;;;;;;;;;-1.40;64.00;;;;;;4602346;30;114913;-80
2023/12/04 08:15:22;;;;;;;;;;;-1.20;64.40;;;;;;4603215;30;115349;-82
2023/12/04 08:17:49;;;;;;;;;;;-1.20;63.90;;;;;;4604186;30;114363;-79
2023/12/04 08:20:16;;;;;;;;;;;-1.10;63.80;;;;;;4604686;30;114148;-80
2023/12/04 08:22:54;;;;;;;;;;;-1.10;63.90;;;;;;4603718;30;115103;-82
2023/12/04 08:25:22;;;;;;;;;;;-1.10;63.30;;;;;;4603159;30;116023;-80
2023/12/04 08:27:49;;;;;;;;;;;-1.10;63.40;;;;;;4604311;30;114252;-81
2023/12/04 08:30:17;;;;;;;;;;;-1.00;63.70;;;;;;4574761;30;114795;-81
2023/12/04 08:32:44;;;;;;;;;;;-0.90;63.60;;;;;;4604918;30;116233;-81
2023/12/04 08:35:11;;;;;;;;;;;-0.90;63.20;;;;;;4590610;30;118200;-81
2023/12/04 08:37:38;;;;;;;;;;;-0.90;63.20;;;;;;4612866;30;114388;-81
2023/12/04 08:40:08;;;;;;;;;;;-0.90;62.60;;;;;;4612704;30;114500;-80
2023/12/04 08:42:35;;;;;;;;;;;-0.90;62.90;;;;;;4609838;30;117114;-80
2023/12/04 08:45:05;;;;;;;;;;;-0.90;62.80;;;;;;4593800;30;114774;-80
2023/12/04 08:47:33;;;;;;;;;;;-1.00;62.20;;;;;;4592712;30;114413;-80
2023/12/04 08:50:01;;;;;;;;;;;-1.10;62.20;;;;;;4601549;30;114819;-81
2023/12/04 08:52:28;;;;;;;;;;;-1.20;62.30;;;;;;4600801;30;114964;-81
2023/12/04 08:54:55;;;;;;;;;;;-1.20;62.00;;;;;;4601373;30;114849;-81
2023/12/04 08:57:22;;;;;;;;;;;-1.20;62.00;;;;;;4601530;30;114383;-81
2023/12/04 08:59:49;;;;;;;;;;;-1.30;61.40;;;;;;4601620;30;114375;-81
2023/12/04 09:02:16;;;;;;;;;;;-1.40;61.50;;;;;;4601344;30;114945;-81
2023/12/04 09:04:43;;;;;;;;;;;-1.40;62.00;;;;;;4572046;30;114943;-80
2023/12/04 09:07:11;;;;;;;;;;;-1.50;61.60;;;;;;4586813;30;114557;-80
2023/12/04 09:09:58;;;;;;;;;;;-1.60;61.80;;;;;;4589218;30;114713;-81
2023/12/04 09:12:27;;;;;;;;;;;-1.50;62.40;;;;;;4586537;30;114940;-79
2023/12/04 09:14:54;;;;;;;;;;;-1.40;62.30;;;;;;4586055;30;115146;-82
2023/12/04 09:17:21;;;;;;;;;;;-1.30;62.30;;;;;;4586615;30;114529;-81
2023/12/04 09:19:53;;;;;;;;;;;-1.30;61.90;;;;;;4604235;30;114694;-81
2023/12/04 09:22:20;;;;;;;;;;;-1.30;61.40;;;;;;4607511;30;116028;-81
2023/12/04 09:24:56;;;;;;;;;;;-1.40;61.60;;;;;;4600364;30;114473;-81
2023/12/04 09:27:23;;;;;;;;;;;-1.40;61.10;;;;;;4601087;30;114743;-81
2023/12/04 09:29:50;;;;;;;;;;;-1.40;61.90;;;;;;4579677;30;114486;-79
2023/12/04 09:32:17;;;;;;;;;;;-1.30;62.20;;;;;;4585349;30;114935;-81
2023/12/04 09:34:44;;;;;;;;;;;-1.20;62.40;;;;;;4599763;30;114733;-80
2023/12/04 09:37:11;;;;;;;;;;;-1.00;62.30;;;;;;4585948;30;114671;-80
2023/12/04 09:39:40;;;;;;;;;;;-0.90;60.60;;;;;;4585822;30;117009;-78
2023/12/04 09:42:07;;;;;;;;;;;-1.10;61.10;;;;;;4607039;30;116244;-80
2023/12/04 09:44:36;;;;;;;;;;;-1.20;61.30;;;;;;4613466;30;114724;-81
2023/12/04 09:47:03;;;;;;;;;;;-1.20;60.50;;;;;;4585161;30;114684;-79
2023/12/04 09:49:30;;;;;;;;;;;-1.30;60.80;;;;;;4600846;30;114846;-81
2023/12/04 09:51:58;;;;;;;;;;;-1.30;61.10;;;;;;4616519;30;115552;-81
2023/12/04 09:54:26;;;;;;;;;;;-1.40;60.50;;;;;;4603611;30;117098;-82
2023/12/04 09:56:53;;;;;;;;;;;-1.50;61.20;;;;;;4570198;30;114633;-81
2023/12/04 09:59:20;;;;;;;;;;;-1.50;60.90;;;;;;4600801;30;114753;-80
2023/12/04 10:01:47;;;;;;;;;;;-1.50;61.20;;;;;;4600047;30;115198;-81
2023/12/04 10:04:14;;;;;;;;;;;-1.50;61.10;;;;;;4571660;30;115549;-82
2023/12/04 10:06:42;;;;;;;;;;;-1.50;61.50;;;;;;4600064;30;114901;-81
2023/12/04 10:09:11;;;;;;;;;;;-1.50;60.90;;;;;;4600970;30;114739;-80
2023/12/04 10:11:42;;;;;;;;;;;-1.50;61.00;;;;;;4570563;30;116288;-80
2023/12/04 10:14:16;;;;;;;;;;;-1.50;61.10;;;;;;4584787;30;115835;-82
2023/12/04 10:16:44;;;;;;;;;;;-1.60;60.60;;;;;;4571605;30;114708;-80
2023/12/04 10:19:17;;;;;;;;;;;-1.70;61.00;;;;;;4599613;30;114771;-83
2023/12/04 10:22:03;;;;;;;;;;;-1.60;61.60;;;;;;4599921;30;114996;-81
2023/12/04 10:24:32;;;;;;;;;;;-1.50;61.70;;;;;;4584756;30;116049;-81
2023/12/04 10:26:59;;;;;;;;;;;-1.50;60.70;;;;;;4585831;30;114567;-80
2023/12/04 10:29:27;;;;;;;;;;;-1.60;60.90;;;;;;4585705;30;114557;-80
2023/12/04 10:31:55;;;;;;;;;;;-1.60;61.30;;;;;;4598111;30;115845;-81
2023/12/04 10:34:25;;;;;;;;;;;-1.60;60.60;;;;;;4584307;30;117331;-81
2023/12/04 10:36:53;;;;;;;;;;;-1.60;60.70;;;;;;4571003;30;114541;-80
2023/12/04 10:39:20;;;;;;;;;;;-1.60;60.90;;;;;;4585629;30;114762;-81
2023/12/04 10:41:54;;;;;;;;;;;-1.50;61.30;;;;;;4519332;30;2020735;-77
2023/12/04 10:44:21;;;;;;;;;;;-1.50;61.30;;;;;;4599507;30;114663;-80
2023/12/04 10:46:48;;;;;;;;;;;-1.50;61.00;;;;;;4600370;30;114617;-82
2023/12/04 10:49:15;;;;;;;;;;;-1.40;61.60;;;;;;4602549;30;114532;-80
2023/12/04 10:51:44;;;;;;;;;;;-1.40;60.90;;;;;;4586298;30;115310;-81
2023/12/04 10:54:12;;;;;;;;;;;-1.40;61.00;;;;;;4586329;30;117584;-79
2023/12/04 10:56:40;;;;;;;;;;;-1.40;60.60;;;;;;4601362;30;114573;-80
2023/12/04 10:59:15;;;;;;;;;;;-1.50;61.10;;;;;;4586400;30;114709;-80
2023/12/04 11:01:42;;;;;;;;;;;-1.40;61.00;;;;;;4584648;30;118559;-81
2023/12/04 11:04:12;;;;;;;;;;;-1.40;60.80;;;;;;4571086;30;115578;-80
2023/12/04 11:06:40;;;;;;;;;;;-1.40;60.80;;;;;;4600899;30;114547;-81
2023/12/04 11:09:07;;;;;;;;;;;-1.40;61.00;;;;;;4600868;30;114337;-80
2023/12/04 11:11:34;;;;;;;;;;;-1.30;61.30;;;;;;4599521;30;114976;-81
2023/12/04 11:14:05;;;;;;;;;;;-1.20;60.70;;;;;;4589683;30;114704;-78
2023/12/04 11:16:41;;;;;;;;;;;-1.30;60.90;;;;;;4571677;30;114674;-80
2023/12/04 11:19:17;;;;;;;;;;;-1.30;61.10;;;;;;4601093;30;114366;-80
2023/12/04 11:21:45;;;;;;;;;;;-1.20;61.00;;;;;;4599834;30;115171;-80
2023/12/04 11:24:12;;;;;;;;;;;-1.20;60.40;;;;;;4599610;30;116282;-79
2023/12/04 11:26:40;;;;;;;;;;;-1.10;60.90;;;;;;4600229;30;114570;-81
2023/12/04 11:29:09;;;;;;;;;;;-1.20;60.80;;;;;;4587600;30;114574;-81
2023/12/04 11:31:36;;;;;;;;;;;-1.20;60.80;;;;;;4603114;30;116279;-81
2023/12/04 11:34:03;;;;;;;;;;;-1.20;60.20;;;;;;4603165;30;115120;-83
2023/12/04 11:36:30;;;;;;;;;;;-1.30;60.70;;;;;;4610969;30;114518;-78
2023/12/04 11:38:57;;;;;;;;;;;-1.20;61.00;;;;;;4588761;30;114539;-80
2023/12/04 11:41:25;;;;;;;;;;;-1.20;61.00;;;;;;4587079;30;114978;-80
2023/12/04 11:43:56;;;;;;;;;;;-1.10;61.00;;;;;;4601661;30;114358;-81
2023/12/04 11:46:25;;;;;;;;;;;-1.00;61.00;;;;;;4603267;30;114518;-79
2023/12/04 11:48:56;;;;;;;;;;;-1.10;60.30;;;;;;4587657;30;114601;-81
2023/12/04 11:51:39;;;;;;;;;;;-1.20;60.90;;;;;;4586506;30;115575;-81
2023/12/04 11:54:07;;;;;;;;;;;-1.10;61.10;;;;;;4600396;30;116746;-79
2023/12/04 11:56:34;;;;;;;;;;;-1.10;60.60;;;;;;4603505;30;114596;-79
2023/12/04 11:59:05;;;;;;;;;;;-1.10;60.90;;;;;;4603583;30;114484;-81
2023/12/04 12:01:34;;;;;;;;;;;-1.10;60.50;;;;;;4601866;30;117392;-79
2023/12/04 12:04:02;;;;;;;;;;;-1.20;60.70;;;;;;4570130;30;118959;-80
2023/12/04 12:06:29;;;;;;;;;;;-1.20;60.50;;;;;;4598217;30;115158;-80
2023/12/04 12:08:58;;;;;;;;;;;-1.30;60.70;;;;;;4587494;30;117049;-81
2023/12/04 12:11:26;;;;;;;;;;;-1.30;60.60;;;;;;4602277;30;115096;-78
2023/12/04 12:13:53;;;;;;;;;;;-1.30;60.80;;;;;;4586525;30;114952;-80
2023/12/04 12:16:20;;;;;;;;;;;-1.30;60.90;;;;;;4604729;30;114632;-79
2023/12/04 12:18:49;;;;;;;;;;;-1.40;60.90;;;;;;4602559;30;114815;-79
2023/12/04 12:21:19;;;;;;;;;;;-1.40;61.20;;;;;;4601551;30;116641;-80
2023/12/04 12:23:48;;;;;;;;;;;-1.40;61.20;;;;;;4559681;30;115838;-79
2023/12/04 12:26:15;;;;;;;;;;;-1.30;61.20;;;;;;4573642;30;114702;-80
2023/12/04 12:28:43;;;;;;;;;;;-1.40;61.00;;;;;;4587644;30;114758;-80
2023/12/04 12:31:10;;;;;;;;;;;-1.50;61.20;;;;;;4583810;30;114992;-79
2023/12/04 12:33:37;;;;;;;;;;;-1.40;61.60;;;;;;4589904;30;117526;-80
2023/12/04 12:36:06;;;;;;;;;;;-1.40;61.50;;;;;;4574161;30;115574;-80
2023/12/04 12:38:37;;;;;;;;;;;-1.40;61.10;;;;;;4593920;30;114683;-80
2023/12/04 12:44:39;;;;;;;;;;;-1.40;61.70;;;;;;4599096;30;116149;-82
2023/12/04 12:47:09;;;;;;;;;;;-1.20;61.50;;;;;;4586949;30;114897;-78
2023/12/04 12:49:40;;;;;;;;;;;-1.20;61.10;;;;;;4604910;30;114643;-82
2023/12/04 12:52:11;;;;;;;;;;;-1.20;61.30;;;;;;4587090;30;116719;-80
2023/12/04 12:54:48;;;;;;;;;;;-1.30;60.70;;;;;;4572943;30;118283;-79
2023/12/04 12:57:21;;;;;;;;;;;-1.40;60.80;;;;;;4596005;30;114534;-81
2023/12/04 12:59:48;;;;;;;;;;;-1.40;60.90;;;;;;4598452;30;114535;-80
2023/12/04 13:02:16;;;;;;;;;;;-1.40;61.40;;;;;;4601682;30;114874;-79
2023/12/04 13:04:44;;;;;;;;;;;-1.30;61.40;;;;;;4602249;30;114877;-80
2023/12/04 13:07:11;;;;;;;;;;;-1.30;61.40;;;;;;4575682;30;114708;-80
2023/12/04 13:09:38;;;;;;;;;;;-1.30;61.60;;;;;;4603123;30;114606;-81
2023/12/04 13:12:08;;;;;;;;;;;-1.20;61.40;;;;;;4585287;30;115149;-80
2023/12/04 13:14:35;;;;;;;;;;;-1.20;61.10;;;;;;4601293;30;114588;-80
2023/12/04 13:17:03;;;;;;;;;;;-1.30;61.30;;;;;;4602358;30;114509;-80
2023/12/04 13:19:34;;;;;;;;;;;-1.30;61.50;;;;;;4601214;30;114411;-80
2023/12/04 13:22:04;;;;;;;;;;;-1.30;60.90;;;;;;4587277;30;118499;-80
2023/12/04 13:24:31;;;;;;;;;;;-1.40;61.20;;;;;;4620512;30;114834;-80
2023/12/04 13:26:58;;;;;;;;;;;-1.40;61.50;;;;;;4605688;30;114623;-79
2023/12/04 13:29:25;;;;;;;;;;;-1.40;61.60;;;;;;4602980;30;114458;-80
2023/12/04 13:31:55;;;;;;;;;;;-1.50;61.50;;;;;;4601520;30;114947;-81
2023/12/04 13:34:22;;;;;;;;;;;-1.50;61.40;;;;;;4601268;30;115381;-81
2023/12/04 13:36:49;;;;;;;;;;;-1.60;61.50;;;;;;4603145;30;114723;-80
2023/12/04 13:39:17;;;;;;;;;;;-1.60;61.80;;;;;;4586742;30;114802;-80
2023/12/04 13:44:30;;;;;;;;;;;-1.60;62.20;;;;;;4564075;30;114608;-81
2023/12/04 13:46:58;;;;;;;;;;;-1.60;62.00;;;;;;4587704;30;114400;-79
2023/12/04 13:49:25;;;;;;;;;;;-1.60;61.80;;;;;;4587212;30;114708;-80
2023/12/04 13:51:53;;;;;;;;;;;-1.60;61.90;;;;;;4585977;30;115636;-79
2023/12/04 13:54:21;;;;;;;;;;;-1.60;61.90;;;;;;4586605;30;114550;-82
2023/12/04 13:56:53;;;;;;;;;;;-1.60;61.80;;;;;;4601461;30;114588;-81
2023/12/04 13:59:21;;;;;;;;;;;-1.60;61.90;;;;;;4602542;30;114619;-81
2023/12/04 14:01:51;;;;;;;;;;;-1.70;62.00;;;;;;4600491;30;115381;-82
2023/12/04 14:04:19;;;;;;;;;;;-1.80;62.20;;;;;;4601586;30;114598;-82
2023/12/04 14:06:46;;;;;;;;;;;-1.70;62.30;;;;;;4601943;30;114397;-80
2023/12/04 14:09:15;;;;;;;;;;;-1.80;62.40;;;;;;4581943;30;114492;-80
2023/12/04 14:11:43;;;;;;;;;;;-1.80;62.40;;;;;;4594980;30;116251;-79
2023/12/04 14:14:12;;;;;;;;;;;-1.80;62.40;;;;;;4586244;30;117941;-80